Time;durP1;ratioP1;P1;durP2;ratioP2;P2;SDS_P1;SDS_P2;PMS_P1;PMS_P2;Temp;Humidity;BMP_temperature;BMP_pressure;BME280_temperature;BME280_humidity;BME280_pressure;Samples;Min_cycle;Max_cycle;Signal;HPM_P1;HPM_P2
2022/10/09 00:01:10;;;;;;;3.73;3.10;;;;;;;;;;5131455;28;20905;-72
2022/10/09 00:03:37;;;;;;;3.43;3.13;;;;;;;;;;5131223;28;20415;-72
2022/10/09 00:06:03;;;;;;;4.63;2.80;;;;;;;;;;5131817;27;20415;-69
2022/10/09 00:08:29;;;;;;;4.20;3.17;;;;;;;;;;5135492;27;20423;-69
2022/10/09 00:10:55;;;;;;;10.53;4.07;;;;;;;;;;5135288;27;20471;-68
2022/10/09 00:13:21;;;;;;;5.10;3.80;;;;;;;;;;5135431;27;21332;-71
2022/10/09 00:15:47;;;;;;;6.07;3.90;;;;;;;;;;5135181;27;20423;-72
2022/10/09 00:18:15;;;;;;;4.80;4.03;;;;;;;;;;5136967;27;20422;-69
2022/10/09 00:20:43;;;;;;;4.43;4.13;;;;;;;;;;5137929;27;20407;-69
2022/10/09 00:23:09;;;;;;;10.50;4.17;;;;;;;;;;5137800;27;20426;-68
2022/10/09 00:25:35;;;;;;;6.40;3.70;;;;;;;;;;5137755;27;20470;-68
2022/10/09 00:28:02;;;;;;;6.00;3.90;;;;;;;;;;5137834;27;20464;-68
2022/10/09 00:30:28;;;;;;;7.00;3.83;;;;;;;;;;5137744;27;20407;-69
2022/10/09 00:32:54;;;;;;;6.27;3.70;;;;;;;;;;5137614;27;20525;-68
2022/10/09 00:35:20;;;;;;;6.43;4.20;;;;;;;;;;5137872;27;20392;-74
2022/10/09 00:37:47;;;;;;;5.37;4.00;;;;;;;;;;5137687;27;20430;-74
2022/10/09 00:40:13;;;;;;;9.93;3.80;;;;;;;;;;5137778;27;20415;-75
2022/10/09 00:42:39;;;;;;;7.43;3.70;;;;;;;;;;5137701;27;20758;-75
2022/10/09 00:45:05;;;;;;;4.57;3.30;;;;;;;;;;5137433;27;20411;-75
2022/10/09 00:47:46;;;;;;;12.33;3.10;;;;;;;;;;5137405;27;20396;-76
2022/10/09 00:50:15;;;;;;;9.20;4.33;;;;;;;;;;5118923;27;20431;-75
2022/10/09 00:52:42;;;;;;;5.57;3.80;;;;;;;;;;5137261;27;20518;-70
2022/10/09 00:55:08;;;;;;;4.20;3.80;;;;;;;;;;5137242;27;20492;-75
2022/10/09 00:57:35;;;;;;;5.20;3.97;;;;;;;;;;5137226;27;20476;-75
2022/10/09 01:00:02;;;;;;;5.80;4.07;;;;;;;;;;5137133;27;20460;-76
2022/10/09 01:02:28;;;;;;;6.57;3.80;;;;;;;;;;5137150;27;20491;-76
2022/10/09 01:04:54;;;;;;;4.47;4.07;;;;;;;;;;5118458;27;20506;-76
2022/10/09 01:07:34;;;;;;;4.93;3.67;;;;;;;;;;5136979;27;20470;-75
2022/10/09 01:10:00;;;;;;;4.87;4.43;;;;;;;;;;5136951;27;20417;-69
2022/10/09 01:12:32;;;;;;;4.50;4.10;;;;;;;;;;5118419;27;20562;-67
2022/10/09 01:15:07;;;;;;;12.00;4.33;;;;;;;;;;5136874;27;20438;-68
2022/10/09 01:17:37;;;;;;;4.73;4.33;;;;;;;;;;5136391;27;20780;-73
2022/10/09 01:20:03;;;;;;;5.10;4.60;;;;;;;;;;5118040;27;20420;-68
2022/10/09 01:22:38;;;;;;;10.83;4.83;;;;;;;;;;5118315;27;20476;-69
2022/10/09 01:25:08;;;;;;;5.37;4.10;;;;;;;;;;5136618;27;20442;-68
2022/10/09 01:27:36;;;;;;;16.03;4.53;;;;;;;;;;5118236;27;20416;-70
2022/10/09 01:30:09;;;;;;;9.43;4.00;;;;;;;;;;5136876;27;20458;-68
2022/10/09 01:32:40;;;;;;;10.10;4.10;;;;;;;;;;5136724;27;20877;-72
2022/10/09 01:35:07;;;;;;;5.60;5.00;;;;;;;;;;5136478;27;20395;-70
2022/10/09 01:37:34;;;;;;;4.40;4.10;;;;;;;;;;5136443;27;20404;-70
2022/10/09 01:40:00;;;;;;;10.73;5.23;;;;;;;;;;5136380;27;20412;-70
2022/10/09 01:42:27;;;;;;;9.43;5.00;;;;;;;;;;5136283;27;20452;-67
2022/10/09 01:44:53;;;;;;;5.67;4.40;;;;;;;;;;5117907;27;20432;-69
2022/10/09 01:47:20;;;;;;;9.00;4.10;;;;;;;;;;5136243;27;20399;-72
2022/10/09 01:49:53;;;;;;;4.57;3.90;;;;;;;;;;5136154;27;20510;-67
2022/10/09 01:52:22;;;;;;;4.87;4.47;;;;;;;;;;5136106;27;20467;-68
2022/10/09 01:55:07;;;;;;;12.80;3.93;;;;;;;;;;5136104;27;20414;-67
2022/10/09 01:57:48;;;;;;;4.90;3.50;;;;;;;;;;5117572;27;20412;-72
2022/10/09 02:00:14;;;;;;;12.93;5.70;;;;;;;;;;5135986;27;20751;-71
2022/10/09 02:02:41;;;;;;;11.70;4.10;;;;;;;;;;5135999;27;20475;-69
2022/10/09 02:05:07;;;;;;;8.70;4.20;;;;;;;;;;5135712;27;20976;-66
2022/10/09 02:07:34;;;;;;;7.67;4.17;;;;;;;;;;5135786;27;20878;-67
2022/10/09 02:10:01;;;;;;;8.57;4.03;;;;;;;;;;5135681;27;20411;-70
2022/10/09 02:12:29;;;;;;;4.97;4.67;;;;;;;;;;5135561;27;20561;-70
2022/10/09 02:14:55;;;;;;;8.23;4.47;;;;;;;;;;5135708;27;20489;-68
2022/10/09 02:17:24;;;;;;;5.27;4.67;;;;;;;;;;5117169;27;20518;-68
2022/10/09 02:19:52;;;;;;;4.90;4.20;;;;;;;;;;5135496;27;20435;-67
2022/10/09 02:22:19;;;;;;;8.50;4.40;;;;;;;;;;5117064;27;20434;-70
2022/10/09 02:24:45;;;;;;;7.47;4.47;;;;;;;;;;5116938;27;20769;-67
2022/10/09 02:27:12;;;;;;;5.83;4.83;;;;;;;;;;5135315;27;20408;-72
2022/10/09 02:29:39;;;;;;;5.83;5.10;;;;;;;;;;5135269;27;20399;-68
2022/10/09 02:32:05;;;;;;;7.97;5.07;;;;;;;;;;5135351;27;20470;-67
2022/10/09 02:34:31;;;;;;;8.37;5.17;;;;;;;;;;5135306;27;20428;-66
2022/10/09 02:36:57;;;;;;;7.10;5.10;;;;;;;;;;5116853;27;20449;-68
2022/10/09 02:39:23;;;;;;;6.03;5.40;;;;;;;;;;5135141;27;20784;-67
2022/10/09 02:41:49;;;;;;;4.90;4.50;;;;;;;;;;5135187;27;20408;-67
2022/10/09 02:44:15;;;;;;;7.63;5.70;;;;;;;;;;5135111;27;20442;-71
2022/10/09 02:46:41;;;;;;;6.13;5.60;;;;;;;;;;5135156;27;20427;-67
2022/10/09 02:49:07;;;;;;;5.57;5.10;;;;;;;;;;5116631;27;20439;-68
2022/10/09 02:51:33;;;;;;;5.27;4.90;;;;;;;;;;5134967;27;20457;-68
2022/10/09 02:53:59;;;;;;;8.33;5.80;;;;;;;;;;5134917;27;20901;-68
2022/10/09 02:56:25;;;;;;;6.93;5.70;;;;;;;;;;5135211;27;20410;-69
2022/10/09 02:58:51;;;;;;;7.93;5.90;;;;;;;;;;5134904;27;20404;-68
2022/10/09 03:01:17;;;;;;;11.27;6.60;;;;;;;;;;5134870;27;20399;-68
2022/10/09 03:03:43;;;;;;;9.33;7.10;;;;;;;;;;5134645;27;20407;-68
2022/10/09 03:06:10;;;;;;;9.53;6.20;;;;;;;;;;5134730;27;20412;-71
2022/10/09 03:08:38;;;;;;;13.13;6.90;;;;;;;;;;5134677;27;20448;-69
2022/10/09 03:11:04;;;;;;;6.83;6.23;;;;;;;;;;5116311;27;20995;-72
2022/10/09 03:13:31;;;;;;;8.93;6.03;;;;;;;;;;5116346;28;20528;-74
2022/10/09 03:16:07;;;;;;;14.70;6.73;;;;;;;;;;5134679;27;20495;-74
2022/10/09 03:18:33;;;;;;;6.20;5.80;;;;;;;;;;5134585;27;20470;-73
2022/10/09 03:20:59;;;;;;;9.60;6.17;;;;;;;;;;5134590;27;20400;-73
2022/10/09 03:23:25;;;;;;;7.00;6.10;;;;;;;;;;5134536;27;20460;-72
2022/10/09 03:25:58;;;;;;;13.30;6.37;;;;;;;;;;5134540;27;20463;-74
2022/10/09 03:28:24;;;;;;;13.83;6.93;;;;;;;;;;5134767;27;20403;-73
2022/10/09 03:30:51;;;;;;;12.77;6.17;;;;;;;;;;5134525;28;20560;-74
2022/10/09 03:33:17;;;;;;;7.60;6.40;;;;;;;;;;5134522;28;20423;-71
2022/10/09 03:35:43;;;;;;;8.53;6.27;;;;;;;;;;5134559;28;20403;-73
2022/10/09 03:38:09;;;;;;;6.90;6.20;;;;;;;;;;5134410;28;20408;-74
2022/10/09 03:40:35;;;;;;;6.80;6.10;;;;;;;;;;5134446;27;20414;-74
2022/10/09 03:43:00;;;;;;;12.83;6.83;;;;;;;;;;5138248;27;20407;-73
2022/10/09 03:45:26;;;;;;;8.53;5.57;;;;;;;;;;5138698;27;20438;-74
2022/10/09 03:47:52;;;;;;;17.53;6.83;;;;;;;;;;5138701;27;20399;-74
2022/10/09 03:50:18;;;;;;;8.80;6.93;;;;;;;;;;5138542;27;20414;-74
2022/10/09 03:52:44;;;;;;;7.27;6.60;;;;;;;;;;5138399;27;20471;-74
2022/10/09 03:55:10;;;;;;;10.67;7.43;;;;;;;;;;5138384;27;20408;-73
2022/10/09 03:57:36;;;;;;;8.40;6.50;;;;;;;;;;5138396;27;20431;-74
2022/10/09 04:00:03;;;;;;;8.17;7.57;;;;;;;;;;5138259;27;20422;-73
2022/10/09 04:02:29;;;;;;;10.47;8.30;;;;;;;;;;5138303;27;20444;-74
2022/10/09 04:04:54;;;;;;;11.60;9.80;;;;;;;;;;5138133;27;20819;-73
2022/10/09 04:07:20;;;;;;;16.33;12.33;;;;;;;;;;5138214;27;20399;-74
2022/10/09 04:09:46;;;;;;;17.67;12.20;;;;;;;;;;5138105;27;20544;-72
2022/10/09 04:12:12;;;;;;;25.80;13.33;;;;;;;;;;5138041;27;20466;-73
2022/10/09 04:14:38;;;;;;;21.70;12.90;;;;;;;;;;5138082;27;20868;-74
2022/10/09 04:17:04;;;;;;;23.40;15.50;;;;;;;;;;5138044;27;20806;-74
2022/10/09 04:19:30;;;;;;;23.67;16.43;;;;;;;;;;5138022;27;20398;-74
2022/10/09 04:21:56;;;;;;;22.50;16.27;;;;;;;;;;5137889;27;20499;-74
2022/10/09 04:24:22;;;;;;;19.50;15.90;;;;;;;;;;5137802;27;20410;-74
2022/10/09 04:26:48;;;;;;;22.33;15.93;;;;;;;;;;5137891;27;20459;-74
2022/10/09 04:29:14;;;;;;;26.20;15.50;;;;;;;;;;5137744;27;20403;-73
2022/10/09 04:31:40;;;;;;;58.83;17.50;;;;;;;;;;5119290;27;20474;-72
2022/10/09 04:34:06;;;;;;;33.53;16.13;;;;;;;;;;5119216;27;20423;-66
2022/10/09 04:36:32;;;;;;;60.03;16.93;;;;;;;;;;5137657;27;20415;-67
2022/10/09 04:38:58;;;;;;;28.13;15.57;;;;;;;;;;5137581;27;20971;-74
2022/10/09 04:41:24;;;;;;;54.57;16.33;;;;;;;;;;5137584;27;20407;-74
2022/10/09 04:43:53;;;;;;;52.80;16.60;;;;;;;;;;5137479;27;20418;-72
2022/10/09 04:46:19;;;;;;;23.13;16.03;;;;;;;;;;5137464;27;20408;-72
2022/10/09 04:48:46;;;;;;;25.67;15.80;;;;;;;;;;5137400;27;20738;-73
2022/10/09 04:51:12;;;;;;;32.57;15.10;;;;;;;;;;5137332;27;20458;-73
2022/10/09 04:53:39;;;;;;;26.73;14.87;;;;;;;;;;5135868;27;20874;-73
2022/10/09 04:56:06;;;;;;;46.57;17.13;;;;;;;;;;5137302;27;20399;-74
2022/10/09 04:58:35;;;;;;;41.43;17.40;;;;;;;;;;5137240;27;20414;-73
2022/10/09 05:01:04;;;;;;;84.60;16.90;;;;;;;;;;5137195;27;20418;-74
2022/10/09 05:03:30;;;;;;;47.00;17.67;;;;;;;;;;5118457;27;20495;-74
2022/10/09 05:06:00;;;;;;;116.80;18.80;;;;;;;;;;5118724;27;20473;-71
2022/10/09 05:08:26;;;;;;;18.87;16.83;;;;;;;;;;5136979;27;20410;-68
2022/10/09 05:10:51;;;;;;;57.07;17.57;;;;;;;;;;5118435;27;20898;-69
2022/10/09 05:13:17;;;;;;;91.63;19.10;;;;;;;;;;5136971;27;20745;-73
2022/10/09 05:15:43;;;;;;;32.67;15.23;;;;;;;;;;5136939;27;20807;-70
2022/10/09 05:18:09;;;;;;;49.07;16.37;;;;;;;;;;5136932;27;20411;-69
2022/10/09 05:20:40;;;;;;;100.50;17.00;;;;;;;;;;5136828;27;20381;-68
2022/10/09 05:23:06;;;;;;;38.73;14.90;;;;;;;;;;5136814;27;20411;-66
2022/10/09 05:25:32;;;;;;;18.60;15.00;;;;;;;;;;5136734;27;20419;-66
2022/10/09 05:27:59;;;;;;;109.57;17.40;;;;;;;;;;5118226;27;20436;-68
2022/10/09 05:30:25;;;;;;;49.83;16.10;;;;;;;;;;5136538;27;20410;-67
2022/10/09 05:32:51;;;;;;;30.70;15.43;;;;;;;;;;5136591;27;20462;-67
2022/10/09 05:35:16;;;;;;;42.17;15.67;;;;;;;;;;5136394;27;20406;-67
2022/10/09 05:37:46;;;;;;;33.20;15.50;;;;;;;;;;5136460;27;20411;-71
2022/10/09 05:40:12;;;;;;;29.20;15.50;;;;;;;;;;5136464;27;20412;-71
2022/10/09 05:42:38;;;;;;;16.33;14.73;;;;;;;;;;5136351;27;20415;-71
2022/10/09 05:45:04;;;;;;;49.83;16.60;;;;;;;;;;5136315;27;20447;-72
2022/10/09 05:47:30;;;;;;;31.73;16.60;;;;;;;;;;5136186;27;20411;-70
2022/10/09 05:49:56;;;;;;;27.90;15.23;;;;;;;;;;5117864;27;20422;-73
2022/10/09 05:52:22;;;;;;;64.73;16.23;;;;;;;;;;5136082;27;20463;-70
2022/10/09 05:54:49;;;;;;;43.23;15.00;;;;;;;;;;5136044;27;20618;-69
2022/10/09 05:57:15;;;;;;;59.73;15.80;;;;;;;;;;5136091;27;20404;-70
2022/10/09 05:59:41;;;;;;;21.70;16.37;;;;;;;;;;5135954;27;20412;-67
2022/10/09 06:02:08;;;;;;;25.93;17.17;;;;;;;;;;5135983;27;20418;-70
2022/10/09 06:04:34;;;;;;;60.00;17.37;;;;;;;;;;5135306;27;21028;-67
2022/10/09 06:07:00;;;;;;;66.33;16.00;;;;;;;;;;5135817;27;20446;-67
2022/10/09 06:09:26;;;;;;;28.70;16.87;;;;;;;;;;5135712;27;20468;-66
2022/10/09 06:11:53;;;;;;;85.60;18.10;;;;;;;;;;5135680;27;20454;-66
2022/10/09 06:14:20;;;;;;;19.77;15.60;;;;;;;;;;5135766;27;20914;-67
2022/10/09 06:16:47;;;;;;;32.80;17.77;;;;;;;;;;5135657;27;20401;-66
2022/10/09 06:19:14;;;;;;;76.97;18.60;;;;;;;;;;5135570;27;20452;-66
2022/10/09 06:21:40;;;;;;;16.83;15.13;;;;;;;;;;5135579;27;20400;-68
2022/10/09 06:24:07;;;;;;;16.00;14.40;;;;;;;;;;5135475;27;20457;-73
2022/10/09 06:26:33;;;;;;;16.50;14.83;;;;;;;;;;5135491;27;20396;-74
2022/10/09 06:29:00;;;;;;;83.17;15.50;;;;;;;;;;5135470;27;20416;-73
2022/10/09 06:31:28;;;;;;;15.43;13.90;;;;;;;;;;5116866;27;20459;-76
2022/10/09 06:33:54;;;;;;;22.87;19.67;;;;;;;;;;5117172;27;20416;-68
2022/10/09 06:36:22;;;;;;;52.33;39.57;;;;;;;;;;5135299;27;20458;-72
2022/10/09 06:38:48;;;;;;;17.57;14.30;;;;;;;;;;5135253;27;20776;-72
2022/10/09 06:41:15;;;;;;;43.33;20.33;;;;;;;;;;5135186;27;20874;-73
2022/10/09 06:43:41;;;;;;;20.27;13.20;;;;;;;;;;5135201;27;20414;-68
2022/10/09 06:46:09;;;;;;;145.47;17.97;;;;;;;;;;5135111;27;20438;-71
2022/10/09 06:48:35;;;;;;;157.37;17.60;;;;;;;;;;5135063;27;20407;-74
2022/10/09 06:51:02;;;;;;;23.37;14.57;;;;;;;;;;5135132;27;20413;-77
2022/10/09 06:53:28;;;;;;;24.87;16.37;;;;;;;;;;5135226;27;20451;-78
2022/10/09 06:55:55;;;;;;;80.20;17.57;;;;;;;;;;5135159;27;20477;-74
2022/10/09 06:58:21;;;;;;;21.40;16.07;;;;;;;;;;5116548;27;20416;-80
2022/10/09 07:00:47;;;;;;;219.53;18.97;;;;;;;;;;5134888;27;20985;-77
2022/10/09 07:03:14;;;;;;;28.10;15.53;;;;;;;;;;5116335;27;20477;-86
2022/10/09 07:05:40;;;;;;;83.40;16.73;;;;;;;;;;5134196;27;20558;-81
2022/10/09 07:08:06;;;;;;;34.63;15.70;;;;;;;;;;5134741;27;20407;-83
2022/10/09 07:10:32;;;;;;;98.30;16.80;;;;;;;;;;5134686;27;20417;-70
2022/10/09 07:12:58;;;;;;;20.57;14.60;;;;;;;;;;5116183;27;20825;-70
2022/10/09 07:15:23;;;;;;;19.70;14.83;;;;;;;;;;5134365;27;20391;-71
2022/10/09 07:17:49;;;;;;;149.07;16.30;;;;;;;;;;5134167;27;20399;-73
2022/10/09 07:20:15;;;;;;;55.63;16.57;;;;;;;;;;5134673;27;20399;-74
2022/10/09 07:22:41;;;;;;;20.63;15.00;;;;;;;;;;5134623;27;20483;-70
2022/10/09 07:25:08;;;;;;;43.37;16.97;;;;;;;;;;5134425;27;20906;-70
2022/10/09 07:27:34;;;;;;;43.33;16.67;;;;;;;;;;5134514;27;20943;-69
2022/10/09 07:30:00;;;;;;;32.97;14.97;;;;;;;;;;5134377;27;20403;-72
2022/10/09 07:32:26;;;;;;;15.77;12.90;;;;;;;;;;5134289;27;20989;-76
2022/10/09 07:34:52;;;;;;;46.33;14.27;;;;;;;;;;5116035;28;20459;-69
2022/10/09 07:37:18;;;;;;;36.53;14.63;;;;;;;;;;5134377;28;20407;-71
2022/10/09 07:39:44;;;;;;;79.33;15.50;;;;;;;;;;5134304;28;20411;-69
2022/10/09 07:42:10;;;;;;;75.63;15.90;;;;;;;;;;5134381;28;20416;-69
2022/10/09 07:44:36;;;;;;;16.53;14.77;;;;;;;;;;5134246;28;20447;-69
2022/10/09 07:47:02;;;;;;;26.47;17.10;;;;;;;;;;5134242;28;20407;-69
2022/10/09 07:49:28;;;;;;;26.47;14.93;;;;;;;;;;5134167;28;20395;-69
2022/10/09 07:51:54;;;;;;;66.73;16.80;;;;;;;;;;5134148;28;20809;-69
2022/10/09 07:54:20;;;;;;;18.90;15.80;;;;;;;;;;5134220;28;20414;-70
2022/10/09 07:56:46;;;;;;;46.87;15.53;;;;;;;;;;5115744;28;20430;-68
2022/10/09 07:59:15;;;;;;;19.70;15.90;;;;;;;;;;5134137;28;20411;-69
2022/10/09 08:01:41;;;;;;;61.27;16.90;;;;;;;;;;5134120;28;20411;-73
2022/10/09 08:04:07;;;;;;;59.03;15.20;;;;;;;;;;5133979;28;20466;-73
2022/10/09 08:06:33;;;;;;;79.40;15.47;;;;;;;;;;5134050;28;20408;-74
2022/10/09 08:09:00;;;;;;;45.67;16.80;;;;;;;;;;5134097;28;20965;-73
2022/10/09 08:11:26;;;;;;;29.97;17.57;;;;;;;;;;5134003;28;20458;-73
2022/10/09 08:13:52;;;;;;;96.07;16.73;;;;;;;;;;5134116;28;20419;-72
2022/10/09 08:16:19;;;;;;;46.77;15.17;;;;;;;;;;5134064;28;20815;-74
2022/10/09 08:18:45;;;;;;;54.23;16.37;;;;;;;;;;5134114;28;20418;-71
2022/10/09 08:21:16;;;;;;;67.20;17.70;;;;;;;;;;5133932;28;20404;-71
2022/10/09 08:23:42;;;;;;;34.87;17.97;;;;;;;;;;5133912;28;20494;-69
2022/10/09 08:26:19;;;;;;;21.63;16.73;;;;;;;;;;5133868;28;20404;-68
2022/10/09 08:28:49;;;;;;;89.37;18.17;;;;;;;;;;5136930;27;20459;-71
2022/10/09 08:31:16;;;;;;;19.97;17.20;;;;;;;;;;5137523;27;20811;-69
2022/10/09 08:33:42;;;;;;;20.70;16.70;;;;;;;;;;5137562;27;20934;-70
2022/10/09 08:36:09;;;;;;;45.07;15.53;;;;;;;;;;5137519;27;20411;-69
2022/10/09 08:38:35;;;;;;;43.97;16.60;;;;;;;;;;5137523;27;20892;-70
2022/10/09 08:41:01;;;;;;;20.67;14.53;;;;;;;;;;5137525;27;20449;-71
2022/10/09 08:43:30;;;;;;;18.00;15.17;;;;;;;;;;5137376;27;20403;-71
2022/10/09 08:45:57;;;;;;;27.17;16.47;;;;;;;;;;5137321;27;20403;-68
2022/10/09 08:48:25;;;;;;;16.10;13.80;;;;;;;;;;5137414;27;20843;-69
2022/10/09 08:50:52;;;;;;;20.10;14.27;;;;;;;;;;5137406;27;20403;-69
2022/10/09 08:53:36;;;;;;;14.57;13.10;;;;;;;;;;5118863;27;20475;-69
2022/10/09 08:56:04;;;;;;;17.00;13.90;;;;;;;;;;5137293;27;20435;-70
2022/10/09 08:58:33;;;;;;;15.83;14.20;;;;;;;;;;5137245;27;20804;-68
2022/10/09 09:01:25;;;;;;;15.53;13.03;;;;;;;;;;5137171;27;20404;-68
2022/10/09 09:04:14;;;;;;;15.60;13.83;;;;;;;;;;5132304;27;20506;-69
2022/10/09 09:06:43;;;;;;;15.00;13.50;;;;;;;;;;5136366;27;20431;-70
2022/10/09 09:09:28;;;;;;;15.93;14.27;;;;;;;;;;5137032;27;20898;-70
2022/10/09 09:12:00;;;;;;;15.10;13.60;;;;;;;;;;5136864;27;20503;-69
2022/10/09 09:14:29;;;;;;;17.43;13.07;;;;;;;;;;5136896;27;20415;-70
2022/10/09 09:17:13;;;;;;;16.10;12.80;;;;;;;;;;5118443;27;20899;-70
2022/10/09 09:19:50;;;;;;;17.00;12.20;;;;;;;;;;5136857;27;20989;-70
2022/10/09 09:22:16;;;;;;;14.80;13.37;;;;;;;;;;5136748;27;20403;-71
2022/10/09 09:24:42;;;;;;;20.63;14.83;;;;;;;;;;5136661;27;20460;-70
2022/10/09 09:27:13;;;;;;;16.80;13.60;;;;;;;;;;5136642;27;20444;-68
2022/10/09 09:29:43;;;;;;;19.00;16.30;;;;;;;;;;5136595;27;20407;-72
2022/10/09 09:32:14;;;;;;;17.60;14.50;;;;;;;;;;5136458;27;20832;-71
2022/10/09 09:34:41;;;;;;;17.90;14.93;;;;;;;;;;5136510;27;20472;-70
2022/10/09 09:37:10;;;;;;;22.50;15.50;;;;;;;;;;5136533;27;20399;-72
2022/10/09 09:39:36;;;;;;;19.50;15.67;;;;;;;;;;5135690;27;20910;-69
2022/10/09 09:42:08;;;;;;;23.43;16.30;;;;;;;;;;5136415;27;20447;-72
2022/10/09 09:44:37;;;;;;;24.77;17.30;;;;;;;;;;5136353;27;20408;-71
2022/10/09 09:47:03;;;;;;;18.83;15.93;;;;;;;;;;5136377;27;20483;-69
2022/10/09 09:49:29;;;;;;;19.03;16.97;;;;;;;;;;5136189;27;20943;-73
2022/10/09 09:51:56;;;;;;;19.60;15.33;;;;;;;;;;5136074;27;20998;-72
2022/10/09 09:54:24;;;;;;;16.57;14.80;;;;;;;;;;5136080;27;20767;-72
2022/10/09 09:56:51;;;;;;;14.67;13.27;;;;;;;;;;5136033;27;20431;-72
2022/10/09 09:59:32;;;;;;;18.20;15.37;;;;;;;;;;5135971;27;20464;-71
2022/10/09 10:02:01;;;;;;;27.83;19.37;;;;;;;;;;5135968;27;20448;-72
2022/10/09 10:04:27;;;;;;;16.80;14.43;;;;;;;;;;5135830;27;20550;-72
2022/10/09 10:06:54;;;;;;;23.73;14.37;;;;;;;;;;5117437;27;20462;-72
2022/10/09 10:09:20;;;;;;;14.37;12.93;;;;;;;;;;5135783;27;20962;-72
2022/10/09 10:12:00;;;;;;;14.67;13.07;;;;;;;;;;5135792;27;20523;-70
2022/10/09 10:14:26;;;;;;;14.03;12.53;;;;;;;;;;5135646;27;20419;-73
2022/10/09 10:16:54;;;;;;;14.73;13.33;;;;;;;;;;5135612;27;20443;-73
2022/10/09 10:19:21;;;;;;;18.27;13.30;;;;;;;;;;5135606;27;20461;-72
2022/10/09 10:21:48;;;;;;;15.10;13.43;;;;;;;;;;5135569;27;20445;-77
2022/10/09 10:24:18;;;;;;;13.60;12.20;;;;;;;;;;5135390;27;20415;-73
2022/10/09 10:26:48;;;;;;;15.83;12.90;;;;;;;;;;5135459;27;20392;-77
2022/10/09 10:29:14;;;;;;;13.30;11.83;;;;;;;;;;5135492;27;20403;-76
2022/10/09 10:31:50;;;;;;;14.03;12.00;;;;;;;;;;5135313;27;20497;-73
2022/10/09 10:34:20;;;;;;;13.20;11.90;;;;;;;;;;5135209;27;20470;-77
2022/10/09 10:36:47;;;;;;;11.63;10.43;;;;;;;;;;5116825;27;20451;-76
2022/10/09 10:39:24;;;;;;;10.10;9.40;;;;;;;;;;5116741;27;20423;-75
2022/10/09 10:41:51;;;;;;;18.27;11.17;;;;;;;;;;5135152;27;20399;-75
2022/10/09 10:44:21;;;;;;;12.00;10.90;;;;;;;;;;5135155;27;20460;-75
2022/10/09 10:46:51;;;;;;;11.80;10.80;;;;;;;;;;5135116;27;20396;-73
2022/10/09 10:49:21;;;;;;;9.93;9.03;;;;;;;;;;5134992;27;20402;-72
2022/10/09 10:51:52;;;;;;;16.07;11.40;;;;;;;;;;5134730;27;20505;-73
2022/10/09 10:54:18;;;;;;;11.67;10.53;;;;;;;;;;5116571;27;20501;-77
2022/10/09 10:56:46;;;;;;;11.17;10.07;;;;;;;;;;5134916;27;20411;-75
2022/10/09 10:59:25;;;;;;;13.93;9.27;;;;;;;;;;5134847;27;20415;-76
2022/10/09 11:02:10;;;;;;;14.00;9.40;;;;;;;;;;5134817;27;20459;-77
2022/10/09 11:04:54;;;;;;;9.40;8.50;;;;;;;;;;5134621;27;20461;-79
2022/10/09 11:07:44;;;;;;;12.03;8.43;;;;;;;;;;5134712;27;20479;-77
2022/10/09 11:10:25;;;;;;;7.77;7.20;;;;;;;;;;5112245;27;20455;-74
2022/10/09 11:13:02;;;;;;;7.40;7.00;;;;;;;;;;5131162;27;20519;-76
2022/10/09 11:15:36;;;;;;;8.97;8.10;;;;;;;;;;5132284;27;20440;-77
2022/10/09 11:18:08;;;;;;;8.60;7.47;;;;;;;;;;5113598;27;20449;-76
2022/10/09 11:20:58;;;;;;;9.70;8.50;;;;;;;;;;5131999;27;20414;-75
2022/10/09 11:23:24;;;;;;;9.60;8.57;;;;;;;;;;5132100;27;20422;-75
2022/10/09 11:25:50;;;;;;;7.93;7.50;;;;;;;;;;5129677;27;20425;-77
2022/10/09 11:28:26;;;;;;;12.40;7.30;;;;;;;;;;5132056;27;20432;-76
2022/10/09 11:31:01;;;;;;;7.10;6.40;;;;;;;;;;5131694;27;20430;-77
2022/10/09 11:33:40;;;;;;;7.23;6.47;;;;;;;;;;5132564;27;20466;-77
2022/10/09 11:36:12;;;;;;;6.87;6.30;;;;;;;;;;5134479;28;20400;-78
2022/10/09 11:38:42;;;;;;;6.07;5.80;;;;;;;;;;5134498;28;20402;-77
2022/10/09 11:41:08;;;;;;;5.77;5.27;;;;;;;;;;5134305;28;20417;-77
2022/10/09 11:43:43;;;;;;;5.60;5.30;;;;;;;;;;5134326;28;20399;-77
2022/10/09 11:46:12;;;;;;;5.67;5.37;;;;;;;;;;5134324;28;20407;-78
2022/10/09 11:48:44;;;;;;;5.87;5.27;;;;;;;;;;5134233;28;20402;-77
2022/10/09 11:51:10;;;;;;;6.43;5.57;;;;;;;;;;5133938;28;20411;-77
2022/10/09 11:53:38;;;;;;;7.33;5.03;;;;;;;;;;5133846;28;20503;-73
2022/10/09 11:56:06;;;;;;;4.80;4.40;;;;;;;;;;5134141;28;20225;-73
2022/10/09 11:58:32;;;;;;;4.77;4.47;;;;;;;;;;5134267;28;20416;-73
2022/10/09 12:01:10;;;;;;;4.70;4.37;;;;;;;;;;5134157;28;20397;-73
2022/10/09 12:03:37;;;;;;;5.03;4.67;;;;;;;;;;5136989;27;20398;-74
2022/10/09 12:06:14;;;;;;;4.80;4.50;;;;;;;;;;5120025;27;20762;-74
2022/10/09 12:08:53;;;;;;;6.10;5.30;;;;;;;;;;5119700;27;20450;-77
2022/10/09 12:11:19;;;;;;;5.03;4.90;;;;;;;;;;5138097;27;20963;-77
2022/10/09 12:13:49;;;;;;;5.57;5.27;;;;;;;;;;5138228;27;20510;-78
2022/10/09 12:16:30;;;;;;;5.50;5.20;;;;;;;;;;5138069;27;20396;-79
2022/10/09 12:18:56;;;;;;;5.43;5.00;;;;;;;;;;5119539;27;20418;-76
2022/10/09 12:21:33;;;;;;;11.70;5.90;;;;;;;;;;5138009;27;20399;-76
2022/10/09 12:23:59;;;;;;;5.87;5.37;;;;;;;;;;5137786;27;20402;-78
2022/10/09 12:26:26;;;;;;;6.10;5.50;;;;;;;;;;5137855;27;20394;-79
2022/10/09 12:28:54;;;;;;;5.63;5.17;;;;;;;;;;5137732;27;20407;-77
2022/10/09 12:31:23;;;;;;;7.27;5.40;;;;;;;;;;5137662;27;20399;-77
2022/10/09 12:33:52;;;;;;;5.40;5.07;;;;;;;;;;5137601;27;20416;-76
2022/10/09 12:36:25;;;;;;;5.63;5.20;;;;;;;;;;5137529;27;20402;-76
2022/10/09 12:38:51;;;;;;;5.10;4.70;;;;;;;;;;5118902;27;20522;-77
2022/10/09 12:41:24;;;;;;;5.30;4.97;;;;;;;;;;5137336;27;20577;-77
2022/10/09 12:43:51;;;;;;;5.10;4.77;;;;;;;;;;5119153;27;20565;-75
2022/10/09 12:46:34;;;;;;;5.33;4.90;;;;;;;;;;5137475;27;20433;-73
2022/10/09 12:49:01;;;;;;;8.63;4.70;;;;;;;;;;5118914;27;20915;-72
2022/10/09 12:51:28;;;;;;;4.50;4.30;;;;;;;;;;5137096;27;20455;-73
2022/10/09 12:53:54;;;;;;;5.90;5.33;;;;;;;;;;5137297;27;20488;-74
2022/10/09 12:56:22;;;;;;;4.43;4.03;;;;;;;;;;5137268;27;20408;-74
2022/10/09 12:58:48;;;;;;;5.63;4.37;;;;;;;;;;5137230;27;20494;-73
2022/10/09 13:01:15;;;;;;;5.53;5.13;;;;;;;;;;5137301;27;20397;-75
2022/10/09 13:03:42;;;;;;;7.17;4.83;;;;;;;;;;5136851;27;20407;-74
2022/10/09 13:06:16;;;;;;;4.87;4.67;;;;;;;;;;5137037;27;20545;-74
2022/10/09 13:08:43;;;;;;;5.60;4.10;;;;;;;;;;5137257;27;20404;-73
2022/10/09 13:11:21;;;;;;;4.63;4.20;;;;;;;;;;5118406;27;20514;-75
2022/10/09 13:13:53;;;;;;;6.20;4.27;;;;;;;;;;5135816;27;20419;-74
2022/10/09 13:16:20;;;;;;;6.30;4.50;;;;;;;;;;5118241;27;20467;-74
2022/10/09 13:18:59;;;;;;;3.80;3.60;;;;;;;;;;5136837;27;20396;-73
2022/10/09 13:21:34;;;;;;;4.70;4.33;;;;;;;;;;5136819;27;20403;-73
2022/10/09 13:24:12;;;;;;;4.60;4.10;;;;;;;;;;5136743;27;20396;-74
2022/10/09 13:26:40;;;;;;;4.53;4.17;;;;;;;;;;5136808;27;20395;-71
2022/10/09 13:29:06;;;;;;;6.47;3.70;;;;;;;;;;5118401;27;20475;-71
2022/10/09 13:31:35;;;;;;;3.83;3.57;;;;;;;;;;5136845;27;20450;-70
2022/10/09 13:34:09;;;;;;;4.47;4.07;;;;;;;;;;5136692;27;20504;-73
2022/10/09 13:36:35;;;;;;;7.20;4.03;;;;;;;;;;5136632;27;20391;-71
2022/10/09 13:39:01;;;;;;;4.67;4.27;;;;;;;;;;5136694;27;20898;-69
2022/10/09 13:41:27;;;;;;;4.10;3.80;;;;;;;;;;5136475;27;20478;-73
2022/10/09 13:43:53;;;;;;;8.53;3.87;;;;;;;;;;5136435;27;20448;-72
2022/10/09 13:46:19;;;;;;;5.23;3.73;;;;;;;;;;5136455;27;20911;-71
2022/10/09 13:48:45;;;;;;;5.13;3.60;;;;;;;;;;5118031;27;20415;-71
2022/10/09 13:51:11;;;;;;;5.30;3.50;;;;;;;;;;5117795;27;20411;-69
2022/10/09 13:53:37;;;;;;;4.50;3.60;;;;;;;;;;5136170;27;20419;-71
2022/10/09 13:56:03;;;;;;;5.33;3.63;;;;;;;;;;5136146;27;20497;-69
2022/10/09 13:58:30;;;;;;;3.60;3.40;;;;;;;;;;5136091;27;20417;-71
2022/10/09 14:00:57;;;;;;;7.83;3.80;;;;;;;;;;5135956;27;20387;-70
2022/10/09 14:03:22;;;;;;;6.53;3.60;;;;;;;;;;5135970;27;20393;-71
2022/10/09 14:05:48;;;;;;;3.77;3.40;;;;;;;;;;5135679;27;20501;-72
2022/10/09 14:08:14;;;;;;;5.27;3.40;;;;;;;;;;5135813;27;20449;-72
2022/10/09 14:10:41;;;;;;;4.03;3.50;;;;;;;;;;5117346;27;20416;-69
2022/10/09 14:13:07;;;;;;;12.10;3.50;;;;;;;;;;5135719;27;20455;-70
2022/10/09 14:15:33;;;;;;;3.70;3.50;;;;;;;;;;5117263;27;20921;-71
2022/10/09 14:17:59;;;;;;;4.87;3.50;;;;;;;;;;5135724;27;20415;-73
2022/10/09 14:20:27;;;;;;;4.47;4.00;;;;;;;;;;5135597;27;20417;-73
2022/10/09 14:22:54;;;;;;;3.87;3.30;;;;;;;;;;5117161;27;20434;-70
2022/10/09 14:25:20;;;;;;;3.80;3.50;;;;;;;;;;5135158;27;20466;-71
2022/10/09 14:27:46;;;;;;;5.43;3.63;;;;;;;;;;5135541;27;20925;-72
2022/10/09 14:30:12;;;;;;;6.17;3.20;;;;;;;;;;5135420;27;20499;-71
2022/10/09 14:32:38;;;;;;;3.70;3.40;;;;;;;;;;5135274;27;20506;-71
2022/10/09 14:35:04;;;;;;;7.30;3.63;;;;;;;;;;5135286;27;20404;-71